Station COVM2 - 8577018 - Cove Point LNG Pier, MD Image indicating link to RSS feed of recent meteorological observations for station COVM2


Conditions at COVM2 as of
(8:00 am EDT)
1200 GMT on 09/01/2026:
     

Click on the graph icon in the table below to see a time series plot of the last five days of that observation.

5-day plot - Wind Direction Wind Direction (WDIR):WSW ( 240 deg true )
5-day plot - Wind Speed Wind Speed (WSPD): 6.0 kts
5-day plot - Wind Gust Wind Gust (GST): 9.9 kts
5-day plot - Atmospheric Pressure Atmospheric Pressure (PRES):30.07 in
5-day plot - Pressure Tendency Pressure Tendency (PTDY):+0.02 in ( Rising )
5-day plot - Air Temperature Air Temperature (ATMP): 78.6 °F
5-day plot - Wind Speed at 10 Meters Wind Speed at 10 meters (WSPD10M): 5.8 kts
5-day plot - Wind Speed at 20 Meters Wind Speed at 20 meters (WSPD20M): 5.8 kts
5-day plot -  Wind Speed, Wind Gust and Atmospheric Pressure Combined plot of Wind Speed, Gust, and Air Pressure
NOS Water Level Observation Network Water Level
Previous observations
TIME
(EDT)
5-day plot - Wind Direction
WDIR
 
5-day plot - Wind Speed
WSPD
kts
5-day plot - Wind Gust
GST
kts
5-day plot - Wave Height
WVHT
ft
5-day plot - Dominant Wave Period
DPD
sec
5-day plot - Average Wave Period
APD
sec
5-day plot - Mean Wave Direction
MWD
 
5-day plot - Atmospheric Pressure
PRES
in
5-day plot - Pressure Tendency
PTDY
in
5-day plot - Air Temperature
ATMP
°F
5-day plot - Water Temperature
WTMP
°F
5-day plot - Dew Point
DEWP
°F
5-day plot - Salinity
SAL
psu
5-day plot - Visibility
VIS
nmi
5-day plot - Tide (above MLLW)
TIDE
ft
2026-09-01 07:54 amWSW 8.0 9.9----30.07- 78.4-----
2026-09-01 07:48 amWSW 8.9 12.0----30.07- 78.1-----
2026-09-01 07:42 amWSW 8.9 13.0----30.07- 78.1-----
2026-09-01 07:36 amWSW 8.9 12.0----30.07- 78.1-----
2026-09-01 07:30 amWSW 8.9 12.0----30.07- 77.9-----
2026-09-01 07:24 amWSW 7.0 11.1----30.06- 77.7-----
2026-09-01 07:18 amWSW 8.9 12.0----30.06-------
2026-09-01 07:12 amWSW 6.0 9.9----30.06-------
2026-09-01 07:06 amWSW 6.0 9.9----30.06-------
2026-09-01 07:00 amWSW 7.0 9.9----30.05+0.00 77.4-----
2026-09-01 06:54 am SW 8.0 11.1----30.05- 77.5-----
2026-09-01 06:48 am SW 6.0 8.0----30.05- 78.1-----
2026-09-01 06:42 am SW 4.1 8.9----30.05- 78.4-----
2026-09-01 06:36 am SW 7.0 11.1----30.05- 78.1-----
2026-09-01 06:30 am SW 7.0 9.9----30.05- 77.0-----
2026-09-01 06:24 amWSW 6.0 9.9----30.05- 77.0-----
2026-09-01 06:18 am SW 7.0 12.0----30.05-------
2026-09-01 06:12 amWSW 7.0 9.9----30.06-------
2026-09-01 06:06 amWSW 5.1 8.9----30.06-------
2026-09-01 06:00 amWSW 6.0 8.0----30.06- 77.0-----
2026-09-01 05:54 am W 4.1 9.9----30.06- 77.0-----
2026-09-01 05:48 amWSW 5.1 8.9----30.06- 76.8-----
2026-09-01 05:42 amWSW 6.0 9.9----30.05- 77.0-----
2026-09-01 05:36 amWSW 6.0 8.9----30.05- 77.4-----
2026-09-01 05:30 amWSW 6.0 8.0----30.05- 77.2-----
2026-09-01 05:24 amWSW 4.1 8.0----30.05- 77.5-----
2026-09-01 05:18 amWSW 5.1 8.0----30.05-------
2026-09-01 05:12 am SW 5.1 8.0----30.05-------
2026-09-01 05:06 amWSW 4.1 8.0----30.05-------
2026-09-01 05:00 amWSW 4.1 8.0----30.05-0.02 77.5-----
2026-09-01 04:54 amWSW 5.1 7.0----30.06- 77.5-----
2026-09-01 04:48 am SW 5.1 6.0----30.05-------
2026-09-01 04:42 am SW 2.9 4.1----30.05-------
2026-09-01 04:36 am- 0.0 1.9----30.05-------
2026-09-01 04:30 am W 1.0 5.1----30.05- 78.1-----
2026-09-01 04:24 am SW 4.1 8.9----30.05- 78.4-----
2026-09-01 04:18 am SW 5.1 8.0----30.05-------
2026-09-01 04:12 am SW 5.1 8.0----30.06-------
2026-09-01 04:06 am SW 5.1 9.9----30.06-------
2026-09-01 04:00 am SW 8.0 13.0----30.06-0.03 78.3-----
2026-09-01 03:54 am SW 8.0 11.1----30.06- 78.8-----
2026-09-01 03:48 amSSW 6.0 9.9----30.06- 79.0-----
2026-09-01 03:42 amSSW 8.9 15.0----30.06- 79.0-----
2026-09-01 03:36 amSSW 11.1 14.0----30.06- 79.0-----
2026-09-01 03:30 amSSW 9.9 15.9----30.06- 79.3-----
2026-09-01 03:24 amSSW 11.1 13.0----30.06- 79.5-----
2026-09-01 03:18 amSSW 8.0 11.1----30.06- 80.1-----
2026-09-01 03:12 am SW 5.1 7.0----30.06- 80.2-----
2026-09-01 03:06 am SW 4.1 6.0----30.06- 80.8-----
2026-09-01 03:00 am SW 2.9 7.0------ 80.2-----
2026-09-01 02:54 am S 1.0 5.1------ 79.5-----
2026-09-01 02:48 am S 5.1 8.9----30.06- 79.3-----
2026-09-01 02:42 amSSE 2.9 6.0----30.06- 78.8-----
2026-09-01 02:36 am SE 2.9 5.1----30.06- 78.3-----
2026-09-01 02:30 am SE 1.9 4.1----30.07-------
2026-09-01 02:24 am SE 2.9 4.1----30.07-------
2026-09-01 02:18 am SE 2.9 5.1----30.07-------
2026-09-01 02:12 am SE 4.1 4.1----30.07-------
2026-09-01 02:06 amSSE 2.9 5.1----30.07-------
2026-09-01 02:00 am S 5.1 7.0----30.07-0.01 78.8-----
2026-09-01 01:54 am S 6.0 8.0----30.07- 79.0-----
2026-09-01 01:48 am S 6.0 7.0----30.08- 79.0-----
2026-09-01 01:42 amSSE 2.9 4.1----30.08- 78.4-----
2026-09-01 01:36 amSSE 4.1 5.1----30.08- 78.4-----
2026-09-01 01:30 amSSE 4.1 5.1----30.09- 78.4-----
2026-09-01 01:24 amSSE 2.9 5.1----30.09- 78.6-----
2026-09-01 01:18 amSSE 2.9 6.0----30.09-------
2026-09-01 01:12 amWSW 1.9 7.0----30.09-------
2026-09-01 01:06 am S 5.1 7.0----30.09-------
2026-09-01 01:00 amSSW 5.1 7.0----30.09+0.00 79.3-----
2026-09-01 12:54 amSSW 4.1 8.0----30.09- 79.2-----
2026-09-01 12:48 amSSW 5.1 7.0----30.09- 78.8-----
2026-09-01 12:42 am S 5.1 7.0----30.09- 78.6-----
2026-09-01 12:36 am S 5.1 7.0----30.09- 78.8-----
2026-09-01 12:30 am S 6.0 7.0----30.09- 78.6-----
2026-09-01 12:24 am S 5.1 6.0----30.09- 78.4-----
2026-09-01 12:18 amSSE 5.1 6.0----30.09-------
2026-09-01 12:12 amSSE 5.1 5.1----30.09-------
2026-09-01 12:06 amSSE 5.1 6.0----30.09-------
2026-09-01 12:00 am S 5.1 6.0----30.09+0.00 79.0-----
2026-08-31 11:54 pm S 5.1 6.0----30.09- 79.0-----
2026-08-31 11:48 pm S 5.1 5.1----30.10-------
2026-08-31 11:42 pm S 5.1 6.0----30.09-------
2026-08-31 11:36 pm S 5.1 7.0----30.09-------
2026-08-31 11:30 pm S 5.1 7.0----30.09- 79.2-----
2026-08-31 11:24 pm S 6.0 7.0----30.09- 79.3-----
2026-08-31 11:18 pm S 5.1 6.0------------
2026-08-31 11:12 pm S 5.1 7.0------------
2026-08-31 11:06 pm S 6.0 7.0------------
2026-08-31 11:00 pm S 7.0 8.0----30.09+0.00 79.5-----
2026-08-31 10:54 pm S 6.0 7.0----30.09- 79.7-----
2026-08-31 10:48 pm S 7.0 8.0----30.09- 79.7-----
2026-08-31 10:42 pmSSE 6.0 7.0----30.09- 79.7-----
2026-08-31 10:36 pmSSE 7.0 8.9----30.09- 79.9-----
2026-08-31 10:30 pmSSE 7.0 8.9----30.09- 79.7-----
2026-08-31 10:24 pmSSE 8.0 9.9----30.09- 79.9-----
2026-08-31 10:18 pmSSE 7.0 9.9----30.09-------
2026-08-31 10:12 pmSSE 7.0 11.1----30.09-------
2026-08-31 10:06 pmSSE 8.9 11.1----30.09-------
2026-08-31 10:00 pmSSE 8.9 11.1----30.09+0.00 79.7-----
2026-08-31 09:54 pmSSE 11.1 12.0----30.09- 80.1-----
2026-08-31 09:48 pmSSE 9.9 11.1----30.09- 80.1-----
2026-08-31 09:42 pmSSE 8.9 9.9----30.09- 80.1-----
2026-08-31 09:36 pmSSE 8.0 9.9----30.09- 80.2-----
2026-08-31 09:30 pmSSE 8.9 9.9----30.09- 80.4-----
2026-08-31 09:24 pmSSE 9.9 12.0----30.09- 80.6-----
2026-08-31 09:18 pm SE 12.0 15.0----30.09-------
2026-08-31 09:12 pm SE 13.0 14.0----30.09-------
2026-08-31 09:06 pm SE 13.0 15.0----30.09-------
2026-08-31 09:00 pm SE 14.0 15.9----30.09-0.01 80.6-----
2026-08-31 08:54 pm SE 13.0 15.0----30.09- 80.6-----
2026-08-31 08:48 pmESE 11.1 12.0----30.09-------
2026-08-31 08:42 pmESE 11.1 12.0----30.09-------
2026-08-31 08:36 pmESE 9.9 13.0----30.10-------
2026-08-31 08:30 pmESE 11.1 12.0----30.09- 79.7-----
2026-08-31 08:24 pmESE 8.0 9.9----30.09- 80.1-----
2026-08-31 08:18 pmESE 6.0 8.9----30.09-------
2026-08-31 08:12 pm E 8.0 11.1----30.09-------
2026-08-31 08:06 pm E 8.9 12.0----30.09-------
2026-08-31 08:00 pmESE 7.0 11.1----30.09+0.00 80.6-----
2026-08-31 07:54 pm E 8.9 9.9----30.09- 80.6-----
2026-08-31 07:48 pmNNE 5.1 6.0----30.09-------
2026-08-31 07:42 pm N 5.1 5.1----30.09-------
2026-08-31 07:36 pm N 5.1 5.1----30.09-------
2026-08-31 06:48 pm N 6.0 8.0----30.09- 80.8-----
2026-08-31 06:42 pm N 6.0 8.0----30.09- 80.8-----
2026-08-31 06:36 pm N 6.0 8.0----30.09- 81.0-----
2026-08-31 06:30 pm N 5.1 8.0----30.09- 81.0-----
2026-08-31 06:24 pm N 7.0 8.0----30.10- 81.0-----
2026-08-31 06:18 pm N 6.0 8.0----30.10- 81.0-----
2026-08-31 06:12 pmNNW 6.0 8.9----30.10- 81.1-----
2026-08-31 06:06 pmNNW 6.0 7.0----30.10- 81.0-----
2026-08-31 06:00 pm N 5.1 7.0----30.10+0.00 81.1-----
2026-08-31 05:54 pm N 6.0 8.0----30.10- 81.0-----
2026-08-31 05:48 pm N 7.0 8.0----30.10- 81.0-----
2026-08-31 05:42 pm N 6.0 7.0----30.10- 80.8-----
2026-08-31 05:36 pm N 7.0 8.0----30.10- 80.8-----
2026-08-31 05:30 pm N 7.0 8.0----30.10- 80.8-----
2026-08-31 05:24 pm N 8.0 8.9----30.10- 80.8-----
2026-08-31 05:18 pm N 6.0 9.9----30.10-------
2026-08-31 05:12 pmNNW 8.9 9.9----30.10-------
2026-08-31 05:06 pm N 8.9 11.1----30.09-------
2026-08-31 05:00 pmNNW 7.0 11.1----30.09-0.02 80.6-----
2026-08-31 04:54 pm N 8.0 9.9----30.09- 80.8-----
2026-08-31 04:48 pm N 8.0 9.9----30.09- 81.0-----
2026-08-31 04:42 pm N 8.9 9.9----30.08- 81.1-----
2026-08-31 04:36 pm N 8.0 8.9----30.08- 81.1-----
2026-08-31 04:30 pm N 6.0 7.0----30.08- 81.1-----
2026-08-31 04:24 pm N 7.0 8.0----30.09- 81.0-----
2026-08-31 04:18 pm N 7.0 8.9----30.09-------
2026-08-31 04:12 pm N 7.0 8.9----30.09-------
2026-08-31 04:06 pm N 8.0 9.9----30.09-------
2026-08-31 04:00 pm N 9.9 11.1----30.10-0.02 80.8-----
2026-08-31 03:54 pm N 8.9 11.1----30.10- 81.0-----
2026-08-31 03:48 pm N 7.0 8.9----30.09- 81.3-----
2026-08-31 03:42 pm N 7.0 8.0----30.10- 81.0-----
2026-08-31 03:36 pm N 7.0 8.0----30.10- 80.8-----
2026-08-31 03:30 pm N 7.0 9.9----30.10- 80.8-----
2026-08-31 03:24 pm N 8.9 9.9----30.10- 80.6-----
2026-08-31 03:18 pm N 8.0 9.9----30.11-------
2026-08-31 03:12 pm N 8.9 11.1----30.11-------
2026-08-31 03:06 pmNNW 8.9 9.9----30.11-------
2026-08-31 03:00 pm N 8.0 8.9----30.10-0.03 80.8-----
2026-08-31 02:54 pmNNW 7.0 8.9----30.11- 81.0-----
2026-08-31 02:48 pm N 9.9 12.0----30.11- 80.4-----
2026-08-31 02:42 pmNNW 7.0 12.0----30.11- 80.8-----
2026-08-31 02:36 pmNNW 11.1 13.0----30.11- 80.2-----
2026-08-31 02:30 pmNNW 9.9 13.0----30.11- 80.2-----
2026-08-31 02:24 pmNNW 8.9 12.0----30.11- 80.2-----
2026-08-31 02:18 pmNNW 7.0 12.0----30.11-------
2026-08-31 02:12 pmNNW 9.9 14.0----30.11-------
2026-08-31 02:06 pmNNW 8.0 12.0----30.12-------
2026-08-31 02:00 pmNNW 8.9 13.0----30.11-0.01 80.2-----
2026-08-31 01:54 pmNNW 9.9 13.0----30.11- 80.1-----
2026-08-31 01:48 pmNNW 8.0 11.1----30.11-------
2026-08-31 01:42 pmNNW 8.0 11.1----30.11-------
2026-08-31 01:36 pmNNW 8.9 9.9----30.11-------
2026-08-31 01:30 pm NW 8.9 9.9----30.12- 79.2-----
2026-08-31 01:24 pm NW 9.9 12.0----30.12- 79.2-----
2026-08-31 01:18 pm NW 9.9 12.0----30.12-------
2026-08-31 01:12 pm NW 9.9 11.1----30.12-------
2026-08-31 01:06 pm NW 9.9 12.0----30.12-------
2026-08-31 01:00 pm NW 8.9 11.1----30.12+0.00 79.2-----
2026-08-31 12:54 pm NW 8.9 12.0----30.12- 79.0-----
2026-08-31 12:48 pmNNW 11.1 12.0----30.12- 79.0-----
2026-08-31 12:42 pm NW 11.1 12.0----30.13- 79.0-----
2026-08-31 12:36 pm NW 11.1 12.0----30.13- 78.8-----
2026-08-31 12:30 pm NW 9.9 12.0----30.13- 79.0-----
2026-08-31 12:24 pmNNW 8.9 12.0----30.13- 79.2-----
2026-08-31 12:18 pm NW 8.9 11.1----30.13-------
2026-08-31 12:12 pm NW 8.9 11.1----30.13-------
2026-08-31 12:06 pmNNW 9.9 11.1----30.13-------
2026-08-31 12:00 pm NW 8.9 9.9----30.13+0.00 78.8-----
2026-08-31 11:54 am NW 6.0 8.0----30.13- 79.2-----
2026-08-31 11:48 am NW 6.0 8.0----30.13- 78.8-----
2026-08-31 11:42 am NW 6.0 8.0----30.13- 79.0-----
2026-08-31 11:36 am NW 7.0 8.0----30.12- 78.8-----
2026-08-31 11:30 amWNW 5.1 6.0----30.12- 79.2-----
2026-08-31 11:24 am NW 4.1 5.1----30.12- 79.2-----
2026-08-31 11:18 am NW 4.1 5.1----30.12-------
2026-08-31 11:12 am NW 4.1 5.1----30.12-------
2026-08-31 11:06 amNNW 5.1 6.0----30.12-------
2026-08-31 11:00 am NW 4.1 6.0----30.13+0.01 78.8-----
2026-08-31 10:54 am NW 5.1 6.0----30.13- 78.8-----
2026-08-31 10:48 am NW 4.1 5.1----30.13- 78.6-----
2026-08-31 10:42 am NW 5.1 7.0----30.13- 78.4-----
2026-08-31 10:36 amNNW 6.0 8.0----30.13- 78.4-----
2026-08-31 10:30 amNNW 5.1 7.0----30.13- 78.4-----
2026-08-31 10:24 amNNW 4.1 7.0----30.13- 78.4-----
2026-08-31 10:18 amNNW 5.1 7.0----30.13-------
2026-08-31 10:12 amNNW 5.1 7.0----30.13-------
2026-08-31 10:06 amNNW 4.1 5.1----30.13-------
2026-08-31 10:00 am N 2.9 7.0----30.12+0.02 77.9-----
2026-08-31 09:54 amNNW 6.0 8.0----30.13- 77.7-----
2026-08-31 09:48 amNNW 6.0 8.0----30.13-------
2026-08-31 09:42 am N 6.0 8.9----30.13-------
2026-08-31 09:36 am N 8.0 8.9----30.13-------
2026-08-31 09:30 am N 5.1 8.0----30.13- 78.3-----
2026-08-31 09:24 am N 7.0 8.0----30.13- 78.1-----
2026-08-31 09:18 amNNW 5.1 7.0----30.13-------
2026-08-31 09:12 am NW 7.0 8.0----30.13-------
2026-08-31 09:06 am NW 4.1 5.1----30.13-------
2026-08-31 09:00 amWNW 4.1 5.1----30.13+0.03 78.8-----
2026-08-31 08:54 amWNW 2.9 5.1----30.13- 79.3-----
2026-08-31 08:48 am W 4.1 5.1----30.13-------
2026-08-31 08:42 amWSW 2.9 4.1----30.13-------
2026-08-31 08:36 am W 1.9 2.9----30.13-------
2026-08-31 08:30 am- 0.0 1.9----30.12- 82.0-----
2026-08-31 08:24 amWSW 1.0 2.9----30.12- 81.3-----
2026-08-31 08:18 amSSW 1.0 1.9----30.12-------
2026-08-31 08:12 amSSW 1.0 4.1----30.12-------
2026-08-31 08:06 am S 2.9 5.1----30.12-------
2026-08-31 08:00 am S 4.1 5.1----30.12+0.02 77.2-----
2026-08-31 07:54 amSSW 2.9 4.1----30.12- 78.3-----